createdAt,value
2023-02-26T00:00:59.728Z,32.96
2023-02-26T00:04:06.382Z,33.09
2023-02-26T00:07:09.639Z,33.27
2023-02-26T00:10:15.307Z,33.14
2023-02-26T00:13:18.823Z,33.18
2023-02-26T00:16:29.132Z,32.99
2023-02-26T00:19:33.983Z,33.16
2023-02-26T00:22:37.588Z,33.17
2023-02-26T00:25:40.643Z,33.12
2023-02-26T00:28:44.424Z,33.03
2023-02-26T00:31:48.106Z,33.18
2023-02-26T00:34:53.718Z,33.27
2023-02-26T00:38:01.565Z,33.01
2023-02-26T00:41:05.320Z,32.86
2023-02-26T00:44:08.919Z,32.96
2023-02-26T00:47:19.964Z,33.11
2023-02-26T00:50:26.510Z,33.09
2023-02-26T00:53:35.781Z,32.79
2023-02-26T00:56:38.935Z,33.20
2023-02-26T00:59:41.992Z,32.86
2023-02-26T01:02:45.615Z,33.00
2023-02-26T01:05:50.585Z,33.20
2023-02-26T01:08:59.590Z,32.92
2023-02-26T01:12:07.282Z,33.03
2023-02-26T01:15:11.875Z,33.03
2023-02-26T01:18:20.145Z,32.81
2023-02-26T01:21:30.315Z,32.66
2023-02-26T01:24:36.462Z,33.30
2023-02-26T01:27:40.164Z,33.12
2023-02-26T01:30:46.035Z,33.16
2023-02-26T01:33:54.942Z,33.07
2023-02-26T01:37:06.125Z,33.23
2023-02-26T01:40:47.277Z,32.98
2023-02-26T01:43:56.721Z,32.96
2023-02-26T01:47:07.630Z,32.99
2023-02-26T01:50:16.647Z,33.16
2023-02-26T01:53:26.144Z,33.13
2023-02-26T01:56:29.412Z,33.16
2023-02-26T01:59:34.095Z,32.88
2023-02-26T02:02:37.650Z,32.93
2023-02-26T02:05:44.827Z,32.84
2023-02-26T02:08:49.439Z,33.16
2023-02-26T02:12:11.481Z,32.79
2023-02-26T02:15:20.376Z,33.23
2023-02-26T02:18:30.915Z,33.19
2023-02-26T02:21:55.528Z,32.87
2023-02-26T02:25:21.169Z,33.03
2023-02-26T02:28:38.900Z,32.87
2023-02-26T02:31:47.478Z,33.02
2023-02-26T02:34:56.180Z,33.10
2023-02-26T02:38:05.863Z,32.68
2023-02-26T02:41:12.673Z,33.03
2023-02-26T02:44:19.288Z,32.85
2023-02-26T02:47:26.144Z,33.15
2023-02-26T02:50:32.728Z,32.76
2023-02-26T02:53:41.363Z,33.08
2023-02-26T02:56:48.917Z,33.11
2023-02-26T02:59:58.881Z,33.23
2023-02-26T03:03:10.600Z,32.84
2023-02-26T03:06:14.306Z,33.16
2023-02-26T03:09:18.061Z,33.04
2023-02-26T03:12:21.145Z,33.08
2023-02-26T03:15:32.929Z,33.02
2023-02-26T03:18:49.554Z,33.14
2023-02-26T03:22:01.243Z,32.92
2023-02-26T03:25:11.001Z,32.82
2023-02-26T03:28:20.432Z,33.09
2023-02-26T03:31:30.575Z,33.19
2023-02-26T03:34:42.191Z,33.26
2023-02-26T03:37:49.327Z,32.83
2023-02-26T03:40:58.516Z,32.91
2023-02-26T03:44:06.260Z,33.04
2023-02-26T03:47:13.923Z,32.92
2023-02-26T03:50:25.983Z,33.11
2023-02-26T03:53:33.235Z,33.08
2023-02-26T03:56:41.940Z,33.41
2023-02-26T03:59:45.150Z,33.31
2023-02-26T04:02:54.812Z,33.05
2023-02-26T04:06:00.806Z,33.28
2023-02-26T04:09:05.405Z,32.89
2023-02-26T04:12:08.501Z,33.18
2023-02-26T04:15:12.666Z,32.92
2023-02-26T04:18:15.999Z,33.10
2023-02-26T04:21:23.080Z,33.10
2023-02-26T04:24:26.233Z,33.35
2023-02-26T04:27:29.322Z,33.23
2023-02-26T04:30:32.400Z,33.06
2023-02-26T04:33:35.731Z,33.06
2023-02-26T04:36:40.239Z,33.02
2023-02-26T04:39:43.344Z,33.01
2023-02-26T04:42:47.545Z,33.21
2023-02-26T04:45:51.017Z,33.07
2023-02-26T04:48:54.293Z,33.22
2023-02-26T04:51:59.251Z,33.21
2023-02-26T04:55:02.362Z,33.10
2023-02-26T04:58:05.623Z,32.88
2023-02-26T05:01:08.701Z,33.05
2023-02-26T05:04:11.997Z,33.31
2023-02-26T05:07:16.509Z,33.33
2023-02-26T05:10:19.671Z,33.03
2023-02-26T05:13:22.869Z,33.23
2023-02-26T05:16:26.449Z,33.00
2023-02-26T05:19:29.908Z,32.88
2023-02-26T05:22:34.481Z,33.03
2023-02-26T05:25:37.628Z,33.24
2023-02-26T05:28:40.782Z,33.17
2023-02-26T05:31:44.036Z,33.08
2023-02-26T05:34:47.210Z,33.23
2023-02-26T05:37:52.088Z,32.96
2023-02-26T05:40:58.220Z,32.83
2023-02-26T05:44:02.550Z,32.97
2023-02-26T05:47:05.796Z,33.06
2023-02-26T05:50:09.756Z,32.91
2023-02-26T05:53:14.244Z,33.21
2023-02-26T05:56:17.960Z,33.23
2023-02-26T05:59:21.700Z,32.78
2023-02-26T06:02:24.860Z,33.10
2023-02-26T06:05:28.091Z,32.93
2023-02-26T06:08:32.626Z,32.84
2023-02-26T06:11:35.769Z,32.82
2023-02-26T06:14:38.886Z,32.84
2023-02-26T06:17:42.044Z,32.68
2023-02-26T06:20:45.220Z,32.82
2023-02-26T06:23:49.769Z,32.80
2023-02-26T06:26:53.102Z,32.78
2023-02-26T06:29:56.236Z,32.73
2023-02-26T06:32:59.355Z,33.04
2023-02-26T06:36:02.594Z,33.01
2023-02-26T06:39:08.153Z,32.81
2023-02-26T06:42:11.233Z,32.59
2023-02-26T06:45:14.403Z,32.66
2023-02-26T06:48:17.611Z,32.40
2023-02-26T06:51:20.665Z,32.49
2023-02-26T06:54:25.229Z,32.65
2023-02-26T06:57:28.330Z,32.66
2023-02-26T07:00:31.516Z,32.65
2023-02-26T07:03:34.602Z,27.01
2023-02-26T07:06:37.654Z,27.72
2023-02-26T07:09:43.895Z,27.40
2023-02-26T07:12:48.559Z,27.43
2023-02-26T07:15:51.768Z,27.64
2023-02-26T07:18:54.949Z,27.63
2023-02-26T07:21:58.083Z,27.28
2023-02-26T07:25:02.711Z,26.74
2023-02-26T07:28:06.254Z,26.45
2023-02-26T07:31:09.406Z,26.50
2023-02-26T07:34:12.565Z,27.00
2023-02-26T07:37:16.153Z,26.59
2023-02-26T07:40:20.926Z,26.96
2023-02-26T07:43:24.066Z,26.24
2023-02-26T07:46:27.624Z,25.62
2023-02-26T07:49:32.615Z,26.43
2023-02-26T07:52:35.691Z,25.98
2023-02-26T07:55:40.219Z,25.97
2023-02-26T07:58:43.290Z,25.35
2023-02-26T08:01:46.491Z,25.40
2023-02-26T08:04:49.572Z,25.25
2023-02-26T08:07:52.714Z,23.17
2023-02-26T08:10:57.311Z,25.08
2023-02-26T08:14:00.466Z,23.85
2023-02-26T08:17:03.611Z,23.63
2023-02-26T08:20:08.030Z,24.81
2023-02-26T08:23:11.375Z,24.34
2023-02-26T08:26:15.948Z,24.72
2023-02-26T08:29:19.753Z,24.67
2023-02-26T08:32:24.242Z,25.13
2023-02-26T08:35:27.436Z,24.72
2023-02-26T08:38:31.835Z,23.51
2023-02-26T08:41:36.724Z,24.88
2023-02-26T08:44:39.905Z,24.10
2023-02-26T08:47:56.232Z,25.58
2023-02-26T08:51:00.407Z,26.57
2023-02-26T08:54:03.551Z,28.05
2023-02-26T08:57:08.262Z,26.69
2023-02-26T09:00:12.593Z,26.60
2023-02-26T09:03:15.658Z,26.22
2023-02-26T09:06:18.797Z,25.95
2023-02-26T09:09:22.074Z,26.32
2023-02-26T09:12:26.795Z,27.43
2023-02-26T09:15:29.932Z,26.68
2023-02-26T09:18:33.359Z,28.04
2023-02-26T09:21:36.942Z,27.04
2023-02-26T09:24:40.259Z,27.00
2023-02-26T09:27:44.919Z,26.96
2023-02-26T09:30:48.126Z,27.36
2023-02-26T09:33:51.250Z,27.70
2023-02-26T09:36:54.377Z,27.99
2023-02-26T09:39:57.571Z,26.76
2023-02-26T09:43:29.432Z,26.38
2023-02-26T09:46:40.702Z,25.79
2023-02-26T09:49:51.821Z,25.54
2023-02-26T09:53:01.702Z,25.44
2023-02-26T09:56:08.516Z,25.35
2023-02-26T09:59:13.405Z,25.24
2023-02-26T10:02:23.208Z,25.02
2023-02-26T10:05:36.340Z,25.30
2023-02-26T10:08:45.993Z,25.82
2023-02-26T10:12:04.603Z,25.17
2023-02-26T10:15:13.638Z,25.00
2023-02-26T10:18:20.898Z,23.65
2023-02-26T10:21:31.997Z,25.26
2023-02-26T10:24:43.014Z,25.39
2023-02-26T10:27:56.932Z,26.84
2023-02-26T10:31:07.122Z,26.93
2023-02-26T10:34:19.727Z,27.23
2023-02-26T10:37:25.105Z,27.81
2023-02-26T10:40:34.830Z,27.91
2023-02-26T10:43:42.529Z,28.58
2023-02-26T10:46:53.551Z,29.10
2023-02-26T10:50:00.650Z,30.28
2023-02-26T10:53:05.206Z,30.42
2023-02-26T10:56:12.749Z,32.07
2023-02-26T10:59:16.823Z,32.04
2023-02-26T11:02:34.989Z,31.19
2023-02-26T11:05:38.250Z,30.51
2023-02-26T11:08:44.166Z,30.10
2023-02-26T11:11:49.741Z,29.91
2023-02-26T11:14:53.903Z,30.22
2023-02-26T11:18:01.080Z,29.98
2023-02-26T11:21:06.943Z,29.24
2023-02-26T11:24:14.927Z,29.43
2023-02-26T11:27:21.191Z,28.23
2023-02-26T11:30:28.282Z,28.24
2023-02-26T11:33:38.656Z,28.46
2023-02-26T11:36:45.542Z,28.91
2023-02-26T11:39:49.166Z,29.54
2023-02-26T11:42:55.076Z,29.02
2023-02-26T11:46:00.850Z,28.75
2023-02-26T11:49:05.741Z,28.97
2023-02-26T11:52:21.038Z,28.88
2023-02-26T11:55:30.012Z,27.85
2023-02-26T11:58:38.475Z,26.76
2023-02-26T12:01:43.867Z,28.10
2023-02-26T12:04:52.565Z,26.00
2023-02-26T12:07:55.805Z,24.47
2023-02-26T12:11:13.546Z,25.38
2023-02-26T12:14:40.934Z,25.30
2023-02-26T12:17:56.162Z,25.80
2023-02-26T12:21:17.785Z,26.26
2023-02-26T12:24:43.710Z,26.06
2023-02-26T12:28:04.759Z,27.00
2023-02-26T12:31:22.648Z,26.85
2023-02-26T12:34:47.573Z,27.98
2023-02-26T12:38:03.426Z,28.51
2023-02-26T12:41:24.838Z,27.85
2023-02-26T12:44:55.196Z,28.62
2023-02-26T12:48:20.828Z,28.60
2023-02-26T12:51:40.761Z,29.71
2023-02-26T12:54:57.421Z,29.95
2023-02-26T12:58:31.863Z,29.98
2023-02-26T13:02:08.571Z,29.92
2023-02-26T13:05:25.431Z,29.82
2023-02-26T13:08:36.804Z,29.74
2023-02-26T13:11:51.765Z,29.99
2023-02-26T13:15:04.177Z,30.31
2023-02-26T13:18:13.420Z,29.94
2023-02-26T13:21:21.937Z,30.32
2023-02-26T13:24:32.569Z,29.95
2023-02-26T13:27:39.388Z,29.38
2023-02-26T13:30:48.407Z,29.51
2023-02-26T13:33:53.178Z,29.56
2023-02-26T13:36:57.065Z,29.23
2023-02-26T13:40:23.173Z,29.40
2023-02-26T13:44:07.894Z,29.25
2023-02-26T13:47:43.059Z,29.47
2023-02-26T13:50:57.234Z,29.83
2023-02-26T13:54:02.278Z,29.52
2023-02-26T13:57:17.292Z,29.84
2023-02-26T14:00:32.837Z,29.92
2023-02-26T14:03:37.547Z,29.69
2023-02-26T14:06:43.663Z,30.04
2023-02-26T14:09:55.627Z,30.27
2023-02-26T14:13:11.445Z,29.74
2023-02-26T14:16:24.541Z,29.76
2023-02-26T14:19:30.415Z,29.29
2023-02-26T14:22:41.880Z,29.15
2023-02-26T14:25:49.695Z,29.38
2023-02-26T14:29:16.007Z,30.13
2023-02-26T14:32:31.031Z,31.17
2023-02-26T14:35:36.603Z,31.94
2023-02-26T14:38:42.789Z,31.77
2023-02-26T14:41:46.544Z,31.45
2023-02-26T14:44:53.623Z,32.12
2023-02-26T14:47:59.900Z,32.14
2023-02-26T14:51:20.205Z,32.13
2023-02-26T14:54:40.961Z,31.37
2023-02-26T14:57:52.406Z,32.52
2023-02-26T15:01:16.049Z,32.95
2023-02-26T15:04:49.956Z,33.16
2023-02-26T15:08:35.800Z,33.58
2023-02-26T15:12:06.683Z,33.40
2023-02-26T15:15:25.594Z,33.42
2023-02-26T15:18:56.197Z,34.04
2023-02-26T15:22:20.441Z,34.02
2023-02-26T15:25:30.622Z,34.34
2023-02-26T15:28:37.951Z,34.57
2023-02-26T15:31:44.541Z,33.82
2023-02-26T15:34:49.212Z,33.89
2023-02-26T15:37:57.774Z,34.21
2023-02-26T15:41:05.088Z,33.85
2023-02-26T15:44:11.382Z,33.48
2023-02-26T15:47:17.519Z,32.66
2023-02-26T15:50:22.419Z,32.47
2023-02-26T15:53:32.071Z,33.08
2023-02-26T15:56:39.404Z,33.05
2023-02-26T15:59:45.882Z,32.50
2023-02-26T16:02:50.925Z,33.12
2023-02-26T16:05:55.957Z,33.35
2023-02-26T16:09:00.916Z,33.62
2023-02-26T16:12:08.404Z,33.23
2023-02-26T16:15:17.027Z,32.88
2023-02-26T16:18:24.598Z,32.75
2023-02-26T16:21:32.124Z,33.31
2023-02-26T16:24:36.904Z,33.16
2023-02-26T16:27:42.891Z,33.19
2023-02-26T16:30:53.073Z,33.29
2023-02-26T16:34:00.099Z,33.32
2023-02-26T16:37:14.413Z,33.43
2023-02-26T16:40:24.148Z,33.72
2023-02-26T16:43:51.155Z,33.60
2023-02-26T16:46:55.132Z,32.97
2023-02-26T16:49:58.701Z,33.12
2023-02-26T16:53:07.000Z,33.03
2023-02-26T16:56:16.810Z,33.05
2023-02-26T16:59:23.601Z,33.12
2023-02-26T17:02:30.566Z,32.60
2023-02-26T17:05:37.331Z,33.00
2023-02-26T17:08:50.677Z,32.80
2023-02-26T17:12:07.247Z,33.21
2023-02-26T17:15:21.151Z,32.85
2023-02-26T17:18:24.335Z,32.77
2023-02-26T17:21:27.789Z,32.76
2023-02-26T17:24:37.010Z,33.46
2023-02-26T17:27:41.848Z,33.72
2023-02-26T17:30:45.067Z,33.87
2023-02-26T17:33:48.213Z,34.05
2023-02-26T17:36:51.408Z,33.48
2023-02-26T17:39:54.606Z,33.51
2023-02-26T17:43:00.152Z,33.70
2023-02-26T17:46:03.371Z,34.01
2023-02-26T17:49:06.561Z,33.58
2023-02-26T17:52:09.755Z,33.81
2023-02-26T17:55:13.274Z,33.80
2023-02-26T17:58:21.026Z,33.52
2023-02-26T18:01:24.897Z,33.62
2023-02-26T18:04:29.611Z,33.64
2023-02-26T18:07:32.908Z,33.23
2023-02-26T18:10:36.041Z,33.26
2023-02-26T18:13:40.598Z,32.87
2023-02-26T18:16:45.426Z,31.86
2023-02-26T18:19:49.610Z,31.33
2023-02-26T18:22:52.795Z,31.34
2023-02-26T18:25:56.564Z,31.19
2023-02-26T18:29:01.118Z,30.93
2023-02-26T18:32:04.372Z,30.49
2023-02-26T18:35:08.166Z,30.61
2023-02-26T18:38:12.726Z,30.37
2023-02-26T18:41:15.918Z,30.25
2023-02-26T18:44:20.383Z,29.80
2023-02-26T18:47:24.245Z,29.99
2023-02-26T18:50:29.661Z,29.76
2023-02-26T18:53:34.140Z,29.80
2023-02-26T18:56:37.893Z,29.80
2023-02-26T18:59:42.553Z,29.45
2023-02-26T19:02:46.626Z,29.78
2023-02-26T19:05:57.384Z,29.20
2023-02-26T19:09:02.866Z,29.29
2023-02-26T19:12:07.314Z,30.06
2023-02-26T19:15:14.014Z,29.16
2023-02-26T19:18:17.140Z,29.29
2023-02-26T19:21:20.288Z,29.48
2023-02-26T19:24:23.522Z,29.44
2023-02-26T19:27:26.653Z,29.11
2023-02-26T19:30:31.143Z,29.45
2023-02-26T19:33:34.684Z,29.01
2023-02-26T19:36:37.967Z,29.54
2023-02-26T19:39:41.322Z,29.84
2023-02-26T19:42:44.738Z,29.58
2023-02-26T19:45:49.557Z,30.11
2023-02-26T19:48:52.807Z,30.18
2023-02-26T19:51:56.102Z,30.28
2023-02-26T19:54:59.440Z,30.23
2023-02-26T19:58:02.514Z,30.07
2023-02-26T20:01:07.893Z,30.09
2023-02-26T20:04:11.449Z,30.79
2023-02-26T20:07:14.872Z,30.83
2023-02-26T20:10:19.080Z,30.63
2023-02-26T20:13:22.291Z,30.46
2023-02-26T20:16:26.833Z,30.36
2023-02-26T20:19:30.027Z,30.36
2023-02-26T20:22:33.165Z,30.59
2023-02-26T20:25:36.275Z,30.71
2023-02-26T20:28:39.922Z,30.39
2023-02-26T20:31:47.312Z,30.37
2023-02-26T20:34:51.981Z,30.39
2023-02-26T20:37:55.117Z,30.32
2023-02-26T20:40:58.310Z,30.36
2023-02-26T20:44:01.579Z,30.59
2023-02-26T20:47:06.192Z,30.93
2023-02-26T20:50:10.876Z,30.60
2023-02-26T20:53:14.104Z,30.93
2023-02-26T20:56:18.040Z,30.81
2023-02-26T20:59:21.699Z,30.82
2023-02-26T21:02:26.357Z,30.71
2023-02-26T21:05:29.649Z,30.78
2023-02-26T21:08:33.603Z,30.79
2023-02-26T21:11:37.222Z,30.63
2023-02-26T21:14:40.378Z,31.10
2023-02-26T21:17:45.034Z,31.01
2023-02-26T21:20:50.122Z,30.87
2023-02-26T21:23:53.349Z,30.98
2023-02-26T21:26:56.567Z,31.10
2023-02-26T21:30:00.031Z,30.78
2023-02-26T21:33:06.592Z,31.18
2023-02-26T21:36:11.553Z,31.09
2023-02-26T21:39:14.698Z,31.26
2023-02-26T21:42:17.878Z,31.12
2023-02-26T21:45:20.969Z,31.17
2023-02-26T21:48:25.520Z,31.38
2023-02-26T21:51:29.035Z,31.17
2023-02-26T21:54:32.374Z,30.96
2023-02-26T21:57:35.469Z,31.57
2023-02-26T22:00:38.555Z,31.09
2023-02-26T22:03:43.108Z,30.99
2023-02-26T22:06:46.385Z,31.35
2023-02-26T22:09:50.017Z,31.19
2023-02-26T22:12:53.109Z,31.64
2023-02-26T22:15:56.193Z,31.51
2023-02-26T22:19:00.668Z,31.46
2023-02-26T22:22:03.982Z,31.17
2023-02-26T22:25:08.767Z,31.70
2023-02-26T22:28:11.894Z,31.64
2023-02-26T22:31:15.130Z,31.40
2023-02-26T22:34:19.657Z,31.21
2023-02-26T22:37:22.814Z,31.51
2023-02-26T22:40:26.611Z,31.51
2023-02-26T22:43:29.687Z,31.28
2023-02-26T22:46:33.077Z,31.65
2023-02-26T22:49:37.660Z,31.60
2023-02-26T22:52:41.279Z,31.18
2023-02-26T22:55:44.379Z,31.42
2023-02-26T22:58:47.563Z,31.30
2023-02-26T23:01:50.749Z,31.32
2023-02-26T23:04:55.393Z,31.68
2023-02-26T23:07:58.552Z,31.75
2023-02-26T23:11:03.313Z,31.35
2023-02-26T23:14:06.458Z,31.62
2023-02-26T23:17:11.472Z,31.73
2023-02-26T23:20:17.572Z,31.44
2023-02-26T23:23:20.665Z,31.73
2023-02-26T23:26:23.796Z,31.90
2023-02-26T23:29:27.246Z,31.40
2023-02-26T23:32:30.368Z,31.67
2023-02-26T23:35:35.199Z,31.58
2023-02-26T23:38:38.484Z,31.81
2023-02-26T23:41:41.534Z,31.83
2023-02-26T23:44:44.564Z,31.77
2023-02-26T23:47:47.649Z,31.76
2023-02-26T23:50:52.189Z,32.10
2023-02-26T23:53:55.316Z,32.07
2023-02-26T23:56:58.432Z,31.81
